createdAt,value
2024-03-24T00:03:07.732Z,12.74
2024-03-24T00:08:26.839Z,12.73
2024-03-24T00:13:46.765Z,12.73
2024-03-24T00:19:06.669Z,12.73
2024-03-24T00:24:25.807Z,12.72
2024-03-24T00:29:45.459Z,12.73
2024-03-24T00:35:04.584Z,12.72
2024-03-24T00:40:23.420Z,12.72
2024-03-24T00:45:42.524Z,12.72
2024-03-24T00:51:01.247Z,12.71
2024-03-24T00:56:20.385Z,12.72
2024-03-24T01:01:40.130Z,12.71
2024-03-24T01:08:14.300Z,12.71
2024-03-24T01:12:17.610Z,12.7
2024-03-24T01:17:36.658Z,12.71
2024-03-24T01:18:21.509Z,12.69
2024-03-24T01:23:40.873Z,12.71
2024-03-24T01:28:59.786Z,12.7
2024-03-24T01:34:19.375Z,12.69
2024-03-24T01:39:39.069Z,12.69
2024-03-24T01:44:58.365Z,12.7
2024-03-24T01:50:17.739Z,12.7
2024-03-24T01:55:36.508Z,12.7
2024-03-24T02:00:55.723Z,12.69
2024-03-24T02:06:15.112Z,12.69
2024-03-24T02:11:34.251Z,12.68
2024-03-24T02:16:53.757Z,12.68
2024-03-24T02:22:13.498Z,12.68
2024-03-24T02:27:31.848Z,12.68
2024-03-24T02:32:50.781Z,12.68
2024-03-24T02:38:10.043Z,12.68
2024-03-24T02:43:28.886Z,12.66
2024-03-24T02:48:48.939Z,12.66
2024-03-24T02:54:07.553Z,12.66
2024-03-24T02:59:26.937Z,12.66
2024-03-24T03:04:46.792Z,12.66
2024-03-24T03:10:07.726Z,12.66
2024-03-24T03:15:25.479Z,12.66
2024-03-24T03:20:45.249Z,12.65
2024-03-24T03:26:04.956Z,12.66
2024-03-24T03:31:24.646Z,12.65
2024-03-24T03:36:43.785Z,12.64
2024-03-24T03:42:03.125Z,12.65
2024-03-24T03:47:22.041Z,12.64
2024-03-24T03:52:41.278Z,12.63
2024-03-24T03:58:00.899Z,12.63
2024-03-24T04:03:20.405Z,12.62
2024-03-24T04:08:39.322Z,12.62
2024-03-24T04:13:59.254Z,12.62
2024-03-24T04:19:18.293Z,12.62
2024-03-24T04:24:37.021Z,12.61
2024-03-24T04:29:56.558Z,12.62
2024-03-24T04:35:15.955Z,12.62
2024-03-24T04:40:35.122Z,12.61
2024-03-24T04:45:54.641Z,12.6
2024-03-24T04:51:13.804Z,12.6
2024-03-24T04:56:32.691Z,12.6
2024-03-24T05:01:51.908Z,12.6
2024-03-24T05:07:11.440Z,12.59
2024-03-24T05:12:31.059Z,12.59
2024-03-24T05:17:50.183Z,12.58
2024-03-24T05:23:09.028Z,12.58
2024-03-24T05:28:30.462Z,12.58
2024-03-24T05:33:47.559Z,12.58
2024-03-24T05:39:06.705Z,12.57
2024-03-24T05:44:25.586Z,12.58
2024-03-24T05:49:44.851Z,12.57
2024-03-24T05:55:03.926Z,12.59
2024-03-24T06:00:23.204Z,12.6
2024-03-24T06:05:42.201Z,12.59
2024-03-24T06:11:01.752Z,12.61
2024-03-24T06:16:20.761Z,12.64
2024-03-24T06:21:40.160Z,12.68
2024-03-24T06:26:59.013Z,12.78
2024-03-24T06:32:18.168Z,13.01
2024-03-24T06:37:37.722Z,13.24
2024-03-24T06:42:57.434Z,13.5
2024-03-24T06:48:16.805Z,13.54
2024-03-24T06:53:36.017Z,13.78
2024-03-24T06:58:55.174Z,13.82
2024-03-24T07:04:14.378Z,13.9
2024-03-24T07:09:34.110Z,13.73
2024-03-24T07:14:53.101Z,13.7
2024-03-24T07:20:12.484Z,13.79
2024-03-24T07:25:32.026Z,14.23
2024-03-24T07:30:50.946Z,14.29
2024-03-24T07:36:10.940Z,14.19
2024-03-24T07:41:29.398Z,13.97
2024-03-24T07:46:49.740Z,13.99
2024-03-24T07:52:07.894Z,14.44
2024-03-24T07:57:27.612Z,14.3
2024-03-24T08:02:46.896Z,13.97
2024-03-24T08:08:07.127Z,13.74
2024-03-24T08:13:24.798Z,13.8
2024-03-24T08:18:43.998Z,14.34
2024-03-24T08:24:02.986Z,14.36
2024-03-24T08:29:21.734Z,14.35
2024-03-24T08:34:41.494Z,14.36
2024-03-24T08:40:01.416Z,14.36
2024-03-24T08:45:21.826Z,14.36
2024-03-24T08:50:40.767Z,14.35
2024-03-24T08:56:00.413Z,14.36
2024-03-24T09:01:20.668Z,14.36
2024-03-24T09:06:39.464Z,14.36
2024-03-24T09:11:58.431Z,14.36
2024-03-24T09:17:18.373Z,14.34
2024-03-24T09:22:36.836Z,14.39
2024-03-24T09:27:56.599Z,14.31
2024-03-24T09:33:16.991Z,14.36
2024-03-24T09:38:35.957Z,14.37
2024-03-24T09:43:54.054Z,14.38
2024-03-24T09:49:13.812Z,14.4
2024-03-24T09:54:32.074Z,14.36
2024-03-24T09:59:51.825Z,14.37
2024-03-24T10:05:10.722Z,14.36
2024-03-24T10:10:29.719Z,14.36
2024-03-24T10:15:49.292Z,14.41
2024-03-24T10:21:09.051Z,14.39
2024-03-24T10:26:28.441Z,14.4
2024-03-24T10:31:49.766Z,14.36
2024-03-24T10:37:06.364Z,14.38
2024-03-24T10:42:25.865Z,14.38
2024-03-24T10:47:45.059Z,14.37
2024-03-24T10:53:04.089Z,14.37
2024-03-24T10:58:23.961Z,14.42
2024-03-24T11:03:43.358Z,14.39
2024-03-24T11:09:02.567Z,14.39
2024-03-24T11:14:21.830Z,14.39
2024-03-24T11:19:41.523Z,14.4
2024-03-24T11:25:01.677Z,14.39
2024-03-24T11:30:19.882Z,14.39
2024-03-24T11:35:40.445Z,14.39
2024-03-24T11:40:59.768Z,14.39
2024-03-24T11:46:17.696Z,14.38
2024-03-24T11:51:37.121Z,14.39
2024-03-24T11:56:56.732Z,14.4
2024-03-24T12:02:15.875Z,14.38
2024-03-24T12:07:34.379Z,14.39
2024-03-24T12:12:53.684Z,14.4
2024-03-24T12:18:13.056Z,14.4
2024-03-24T12:23:32.273Z,14.38
2024-03-24T12:28:50.923Z,14.41
2024-03-24T12:34:10.222Z,14.42
2024-03-24T12:39:29.007Z,14.4
2024-03-24T12:44:48.101Z,14.39
2024-03-24T12:55:27.489Z,14.39
2024-03-24T13:00:46.787Z,14.39
2024-03-24T13:06:06.092Z,14.38
2024-03-24T13:11:25.473Z,13.16
2024-03-24T13:16:45.004Z,14.4
2024-03-24T13:22:04.080Z,14.41
2024-03-24T13:27:23.506Z,14.39
2024-03-24T13:32:42.579Z,14.38
2024-03-24T13:38:01.300Z,14.4
2024-03-24T13:43:20.351Z,14.39
2024-03-24T13:48:39.667Z,14.39
2024-03-24T13:53:58.635Z,14.39
2024-03-24T13:59:17.823Z,14.42
2024-03-24T14:04:37.369Z,14.4
2024-03-24T14:09:57.076Z,14.4
2024-03-24T14:15:16.312Z,14.39
2024-03-24T14:20:35.473Z,14.4
2024-03-24T14:25:54.755Z,14.4
2024-03-24T14:31:14.344Z,14.4
2024-03-24T14:36:33.939Z,14.4
2024-03-24T14:47:11.936Z,14.38
2024-03-24T14:52:31.350Z,14.39
2024-03-24T14:57:50.952Z,14.39
2024-03-24T15:03:10.047Z,14.4
2024-03-24T15:08:29.921Z,14.41
2024-03-24T15:13:50.249Z,14.41
2024-03-24T15:19:08.735Z,14.42
2024-03-24T15:24:28.351Z,14.39
2024-03-24T15:29:48.199Z,14.39
2024-03-24T15:35:07.146Z,14.39
2024-03-24T15:40:26.070Z,14.39
2024-03-24T15:45:44.632Z,14.39
2024-03-24T15:51:03.522Z,14.38
2024-03-24T15:56:22.699Z,14.38
2024-03-24T16:01:41.826Z,14.37
2024-03-24T16:07:00.771Z,13.66
2024-03-24T16:12:20.208Z,13.12
2024-03-24T16:17:40.411Z,14.38
2024-03-24T16:22:59.906Z,13.12
2024-03-24T16:28:18.891Z,12.99
2024-03-24T16:33:37.778Z,12.97
2024-03-24T16:38:56.214Z,13.05
2024-03-24T16:44:14.999Z,13.08
2024-03-24T16:49:34.284Z,13.06
2024-03-24T16:54:54.029Z,12.98
2024-03-24T17:00:12.954Z,12.93
2024-03-24T17:05:32.487Z,12.92
2024-03-24T17:10:51.766Z,12.9
2024-03-24T17:16:11.009Z,12.89
2024-03-24T17:21:30.688Z,12.89
2024-03-24T17:26:50.045Z,12.89
2024-03-24T17:32:08.376Z,12.88
2024-03-24T17:37:27.536Z,12.87
2024-03-24T17:42:46.315Z,12.87
2024-03-24T17:48:05.821Z,12.86
2024-03-24T17:53:25.606Z,12.86
2024-03-24T17:58:46.077Z,12.86
2024-03-24T18:04:05.512Z,12.85
2024-03-24T18:09:23.063Z,12.85
2024-03-24T18:14:44.501Z,12.84
2024-03-24T18:20:02.915Z,12.84
2024-03-24T18:25:21.405Z,12.84
2024-03-24T18:30:41.263Z,12.84
2024-03-24T18:36:00.890Z,12.83
2024-03-24T18:41:20.373Z,12.83
2024-03-24T18:46:39.674Z,12.83
2024-03-24T18:51:58.947Z,12.83
2024-03-24T18:57:18.481Z,12.82
2024-03-24T19:02:37.793Z,12.82
2024-03-24T19:08:21.662Z,12.82
2024-03-24T19:13:40.646Z,12.82
2024-03-24T19:18:59.583Z,12.82
2024-03-24T19:24:18.316Z,12.82
2024-03-24T19:29:38.278Z,12.82
2024-03-24T19:34:58.253Z,12.82
2024-03-24T19:40:16.374Z,12.81
2024-03-24T19:45:35.367Z,12.81
2024-03-24T19:50:54.393Z,12.81
2024-03-24T19:56:14.040Z,12.81
2024-03-24T20:01:32.789Z,12.81
2024-03-24T20:06:52.611Z,12.81
2024-03-24T20:12:11.887Z,12.81
2024-03-24T20:17:31.572Z,12.8
2024-03-24T20:22:50.425Z,12.8
2024-03-24T20:28:09.985Z,12.8
2024-03-24T20:33:29.935Z,12.8
2024-03-24T20:38:48.689Z,12.8
2024-03-24T20:44:07.666Z,12.8
2024-03-24T20:49:27.494Z,12.8
2024-03-24T20:54:46.535Z,12.8
2024-03-24T21:00:05.389Z,12.79
2024-03-24T21:05:25.099Z,12.8
2024-03-24T21:10:44.120Z,12.79
2024-03-24T21:16:03.494Z,12.79
2024-03-24T21:21:22.596Z,12.79
2024-03-24T21:26:41.682Z,12.79
2024-03-24T21:32:01.057Z,12.78
2024-03-24T21:37:20.001Z,12.78
2024-03-24T21:42:39.456Z,12.78
2024-03-24T21:47:59.089Z,12.78
2024-03-24T21:53:17.719Z,12.78
2024-03-24T21:58:36.744Z,12.78
2024-03-24T22:03:56.145Z,12.77
2024-03-24T22:09:15.020Z,12.78
2024-03-24T22:14:34.195Z,12.78
2024-03-24T22:19:53.512Z,12.78
2024-03-24T22:25:12.671Z,12.78
2024-03-24T22:30:32.127Z,12.77
2024-03-24T22:35:51.132Z,12.78
2024-03-24T22:41:10.860Z,12.77
2024-03-24T22:46:30.297Z,12.77
2024-03-24T22:51:49.350Z,12.76
2024-03-24T22:57:08.408Z,12.77
2024-03-24T23:02:27.488Z,12.76
2024-03-24T23:07:46.679Z,12.76
2024-03-24T23:13:06.349Z,12.76
2024-03-24T23:18:25.240Z,12.76
2024-03-24T23:23:44.705Z,12.76
2024-03-24T23:29:03.594Z,12.76
2024-03-24T23:34:22.411Z,12.76
2024-03-24T23:39:42.049Z,12.75
2024-03-24T23:50:21.043Z,12.75
2024-03-24T23:55:40.496Z,12.75
